sensor_id;sensor_type;location;lat;lon;timestamp;P1;durP1;ratioP1;P2;durP2;ratioP2
57339;SDS011;43174;50.930;18.170;2023-06-01T00:05:35;7.10;;;6.60;;
57339;SDS011;43174;50.930;18.170;2023-06-01T00:15:17;3.40;;;3.30;;
57339;SDS011;43174;50.930;18.170;2023-06-01T00:25:00;7.90;;;7.50;;
57339;SDS011;43174;50.930;18.170;2023-06-01T00:34:42;9.00;;;8.10;;
57339;SDS011;43174;50.930;18.170;2023-06-01T00:44:25;8.90;;;8.00;;
57339;SDS011;43174;50.930;18.170;2023-06-01T00:54:07;6.30;;;5.90;;
57339;SDS011;43174;50.930;18.170;2023-06-01T01:03:51;4.40;;;4.10;;
57339;SDS011;43174;50.930;18.170;2023-06-01T01:33:08;21.90;;;6.70;;
57339;SDS011;43174;50.930;18.170;2023-06-01T01:42:50;7.70;;;7.30;;
57339;SDS011;43174;50.930;18.170;2023-06-01T01:52:33;9.00;;;8.50;;
57339;SDS011;43174;50.930;18.170;2023-06-01T02:02:17;8.80;;;8.30;;
57339;SDS011;43174;50.930;18.170;2023-06-01T02:11:59;5.90;;;5.60;;
57339;SDS011;43174;50.930;18.170;2023-06-01T02:21:42;3.70;;;3.40;;
57339;SDS011;43174;50.930;18.170;2023-06-01T02:31:27;8.50;;;8.00;;
57339;SDS011;43174;50.930;18.170;2023-06-01T02:41:11;7.10;;;6.80;;
57339;SDS011;43174;50.930;18.170;2023-06-01T02:50:53;7.40;;;6.80;;
57339;SDS011;43174;50.930;18.170;2023-06-01T03:00:42;15.50;;;9.30;;
57339;SDS011;43174;50.930;18.170;2023-06-01T03:10:24;3.10;;;3.00;;
57339;SDS011;43174;50.930;18.170;2023-06-01T03:20:07;8.70;;;8.30;;
57339;SDS011;43174;50.930;18.170;2023-06-01T03:30:00;1.50;;;1.50;;
57339;SDS011;43174;50.930;18.170;2023-06-01T03:39:44;7.80;;;7.20;;
57339;SDS011;43174;50.930;18.170;2023-06-01T03:49:27;13.80;;;10.30;;
57339;SDS011;43174;50.930;18.170;2023-06-01T03:59:09;10.60;;;9.90;;
57339;SDS011;43174;50.930;18.170;2023-06-01T04:09:03;8.80;;;8.30;;
57339;SDS011;43174;50.930;18.170;2023-06-01T04:18:49;10.40;;;9.60;;
57339;SDS011;43174;50.930;18.170;2023-06-01T04:28:33;11.30;;;10.50;;
57339;SDS011;43174;50.930;18.170;2023-06-01T04:38:18;10.50;;;9.80;;
57339;SDS011;43174;50.930;18.170;2023-06-01T04:48:10;15.00;;;10.60;;
57339;SDS011;43174;50.930;18.170;2023-06-01T04:57:53;7.20;;;6.70;;
57339;SDS011;43174;50.930;18.170;2023-06-01T05:07:37;6.70;;;6.10;;
57339;SDS011;43174;50.930;18.170;2023-06-01T05:17:26;22.70;;;8.00;;
57339;SDS011;43174;50.930;18.170;2023-06-01T05:27:08;6.00;;;5.70;;
57339;SDS011;43174;50.930;18.170;2023-06-01T05:36:50;10.40;;;6.40;;
57339;SDS011;43174;50.930;18.170;2023-06-01T05:46:33;5.60;;;5.30;;
57339;SDS011;43174;50.930;18.170;2023-06-01T05:56:15;6.30;;;5.80;;
57339;SDS011;43174;50.930;18.170;2023-06-01T06:06:00;4.90;;;4.60;;
57339;SDS011;43174;50.930;18.170;2023-06-01T06:15:43;3.80;;;3.70;;
57339;SDS011;43174;50.930;18.170;2023-06-01T06:25:25;9.80;;;4.20;;
57339;SDS011;43174;50.930;18.170;2023-06-01T06:35:08;4.30;;;3.80;;
57339;SDS011;43174;50.930;18.170;2023-06-01T06:44:54;2.50;;;2.40;;
57339;SDS011;43174;50.930;18.170;2023-06-01T06:54:41;1.60;;;0.90;;
57339;SDS011;43174;50.930;18.170;2023-06-01T07:04:24;3.10;;;2.90;;
57339;SDS011;43174;50.930;18.170;2023-06-01T07:14:13;3.10;;;2.50;;
57339;SDS011;43174;50.930;18.170;2023-06-01T07:23:56;2.90;;;2.70;;
57339;SDS011;43174;50.930;18.170;2023-06-01T07:33:44;2.90;;;2.70;;
57339;SDS011;43174;50.930;18.170;2023-06-01T07:43:27;1.60;;;1.50;;
57339;SDS011;43174;50.930;18.170;2023-06-01T07:53:09;2.40;;;2.30;;
57339;SDS011;43174;50.930;18.170;2023-06-01T08:02:52;4.00;;;3.80;;
57339;SDS011;43174;50.930;18.170;2023-06-01T08:12:37;15.70;;;2.10;;
57339;SDS011;43174;50.930;18.170;2023-06-01T08:22:22;1.60;;;1.50;;
57339;SDS011;43174;50.930;18.170;2023-06-01T08:32:05;1.40;;;1.30;;
57339;SDS011;43174;50.930;18.170;2023-06-01T08:51:52;18.50;;;11.80;;
57339;SDS011;43174;50.930;18.170;2023-06-01T09:01:37;2.60;;;0.90;;
57339;SDS011;43174;50.930;18.170;2023-06-01T09:11:19;3.20;;;2.50;;
57339;SDS011;43174;50.930;18.170;2023-06-01T09:21:11;17.00;;;2.30;;
57339;SDS011;43174;50.930;18.170;2023-06-01T09:30:54;3.30;;;1.50;;
57339;SDS011;43174;50.930;18.170;2023-06-01T09:40:37;1.20;;;1.20;;
57339;SDS011;43174;50.930;18.170;2023-06-01T09:50:34;2.00;;;1.90;;
57339;SDS011;43174;50.930;18.170;2023-06-01T10:00:23;1.50;;;1.40;;
57339;SDS011;43174;50.930;18.170;2023-06-01T10:10:07;6.90;;;1.80;;
57339;SDS011;43174;50.930;18.170;2023-06-01T10:19:51;1.50;;;1.50;;
57339;SDS011;43174;50.930;18.170;2023-06-01T10:29:33;0.70;;;0.70;;
57339;SDS011;43174;50.930;18.170;2023-06-01T10:39:26;1.80;;;1.50;;
57339;SDS011;43174;50.930;18.170;2023-06-01T10:49:08;1.90;;;1.40;;
57339;SDS011;43174;50.930;18.170;2023-06-01T10:54:23;2.00;;;1.10;;
57339;SDS011;43174;50.930;18.170;2023-06-01T11:04:06;10.70;;;3.20;;
57339;SDS011;43174;50.930;18.170;2023-06-01T11:14:06;1.00;;;1.00;;
57339;SDS011;43174;50.930;18.170;2023-06-01T11:23:50;1.30;;;0.90;;
57339;SDS011;43174;50.930;18.170;2023-06-01T11:33:32;1.50;;;1.40;;
57339;SDS011;43174;50.930;18.170;2023-06-01T11:41:00;1.40;;;1.00;;
57339;SDS011;43174;50.930;18.170;2023-06-01T11:50:45;18.60;;;1.10;;
57339;SDS011;43174;50.930;18.170;2023-06-01T12:00:27;1.60;;;1.00;;
57339;SDS011;43174;50.930;18.170;2023-06-01T12:10:12;0.70;;;0.70;;
57339;SDS011;43174;50.930;18.170;2023-06-01T12:20:00;0.70;;;0.70;;
57339;SDS011;43174;50.930;18.170;2023-06-01T12:29:46;0.90;;;0.90;;
57339;SDS011;43174;50.930;18.170;2023-06-01T12:39:38;1.60;;;1.50;;
57339;SDS011;43174;50.930;18.170;2023-06-01T12:49:26;0.40;;;0.40;;
57339;SDS011;43174;50.930;18.170;2023-06-01T12:59:08;0.90;;;0.70;;
57339;SDS011;43174;50.930;18.170;2023-06-01T13:08:54;1.10;;;1.00;;
57339;SDS011;43174;50.930;18.170;2023-06-01T13:18:36;1.20;;;1.10;;
57339;SDS011;43174;50.930;18.170;2023-06-01T13:28:19;15.60;;;1.30;;
57339;SDS011;43174;50.930;18.170;2023-06-01T13:38:03;0.50;;;0.50;;
57339;SDS011;43174;50.930;18.170;2023-06-01T13:47:46;1.80;;;0.90;;
57339;SDS011;43174;50.930;18.170;2023-06-01T13:57:32;0.60;;;0.60;;
57339;SDS011;43174;50.930;18.170;2023-06-01T14:07:15;0.50;;;0.50;;
57339;SDS011;43174;50.930;18.170;2023-06-01T14:16:58;2.70;;;0.70;;
57339;SDS011;43174;50.930;18.170;2023-06-01T14:26:43;28.20;;;2.00;;
57339;SDS011;43174;50.930;18.170;2023-06-01T14:36:27;1.50;;;0.60;;
57339;SDS011;43174;50.930;18.170;2023-06-01T14:46:08;3.30;;;1.00;;
57339;SDS011;43174;50.930;18.170;2023-06-01T14:55:51;0.80;;;0.60;;
57339;SDS011;43174;50.930;18.170;2023-06-01T15:05:33;0.60;;;0.60;;
57339;SDS011;43174;50.930;18.170;2023-06-01T15:10:24;2.70;;;1.20;;
57339;SDS011;43174;50.930;18.170;2023-06-01T15:20:07;2.90;;;0.80;;
57339;SDS011;43174;50.930;18.170;2023-06-01T15:29:49;1.70;;;1.60;;
57339;SDS011;43174;50.930;18.170;2023-06-01T15:39:33;2.50;;;1.90;;
57339;SDS011;43174;50.930;18.170;2023-06-01T15:49:16;3.80;;;2.00;;
57339;SDS011;43174;50.930;18.170;2023-06-01T15:58:58;0.70;;;0.70;;
57339;SDS011;43174;50.930;18.170;2023-06-01T16:08:41;1.30;;;1.00;;
57339;SDS011;43174;50.930;18.170;2023-06-01T16:18:23;2.60;;;1.70;;
57339;SDS011;43174;50.930;18.170;2023-06-01T16:28:04;2.60;;;2.00;;
57339;SDS011;43174;50.930;18.170;2023-06-01T16:37:47;0.80;;;0.80;;
57339;SDS011;43174;50.930;18.170;2023-06-01T16:47:29;3.10;;;1.70;;
57339;SDS011;43174;50.930;18.170;2023-06-01T16:57:11;4.30;;;2.00;;
57339;SDS011;43174;50.930;18.170;2023-06-01T17:06:54;2.50;;;2.30;;
57339;SDS011;43174;50.930;18.170;2023-06-01T17:16:39;5.80;;;2.60;;
57339;SDS011;43174;50.930;18.170;2023-06-01T17:26:21;0.90;;;0.90;;
57339;SDS011;43174;50.930;18.170;2023-06-01T17:36:04;6.60;;;4.60;;
57339;SDS011;43174;50.930;18.170;2023-06-01T17:45:47;2.70;;;2.10;;
57339;SDS011;43174;50.930;18.170;2023-06-01T17:55:29;5.00;;;3.00;;
57339;SDS011;43174;50.930;18.170;2023-06-01T18:05:15;6.70;;;5.90;;
57339;SDS011;43174;50.930;18.170;2023-06-01T18:15:00;2.80;;;2.30;;
57339;SDS011;43174;50.930;18.170;2023-06-01T18:24:43;2.10;;;1.20;;
57339;SDS011;43174;50.930;18.170;2023-06-01T18:34:27;2.30;;;2.10;;
57339;SDS011;43174;50.930;18.170;2023-06-01T18:44:11;13.10;;;3.70;;
57339;SDS011;43174;50.930;18.170;2023-06-01T18:53:54;3.10;;;2.80;;
57339;SDS011;43174;50.930;18.170;2023-06-01T19:03:41;30.90;;;4.20;;
57339;SDS011;43174;50.930;18.170;2023-06-01T19:13:34;2.20;;;1.90;;
57339;SDS011;43174;50.930;18.170;2023-06-01T19:23:17;4.10;;;3.80;;
57339;SDS011;43174;50.930;18.170;2023-06-01T19:32:59;3.80;;;3.60;;
57339;SDS011;43174;50.930;18.170;2023-06-01T19:42:42;14.10;;;6.00;;
57339;SDS011;43174;50.930;18.170;2023-06-01T19:52:39;8.30;;;7.50;;
57339;SDS011;43174;50.930;18.170;2023-06-01T20:02:30;17.80;;;5.10;;
57339;SDS011;43174;50.930;18.170;2023-06-01T20:12:24;19.00;;;4.90;;
57339;SDS011;43174;50.930;18.170;2023-06-01T20:22:07;7.30;;;6.90;;
57339;SDS011;43174;50.930;18.170;2023-06-01T20:31:50;8.70;;;2.20;;
57339;SDS011;43174;50.930;18.170;2023-06-01T20:41:36;5.50;;;5.00;;
57339;SDS011;43174;50.930;18.170;2023-06-01T21:01:02;6.60;;;6.10;;
57339;SDS011;43174;50.930;18.170;2023-06-01T21:10:45;4.60;;;4.40;;
57339;SDS011;43174;50.930;18.170;2023-06-01T21:20:28;5.70;;;5.30;;
57339;SDS011;43174;50.930;18.170;2023-06-01T21:30:11;16.90;;;7.00;;
57339;SDS011;43174;50.930;18.170;2023-06-01T21:39:53;11.20;;;10.40;;
57339;SDS011;43174;50.930;18.170;2023-06-01T21:49:40;24.50;;;12.30;;
57339;SDS011;43174;50.930;18.170;2023-06-01T21:59:22;9.20;;;8.20;;
57339;SDS011;43174;50.930;18.170;2023-06-01T22:09:04;12.60;;;11.50;;
57339;SDS011;43174;50.930;18.170;2023-06-01T22:18:47;9.20;;;8.60;;
57339;SDS011;43174;50.930;18.170;2023-06-01T22:28:29;9.30;;;8.70;;
57339;SDS011;43174;50.930;18.170;2023-06-01T22:45:28;9.80;;;9.30;;
57339;SDS011;43174;50.930;18.170;2023-06-01T22:55:10;9.90;;;9.30;;
57339;SDS011;43174;50.930;18.170;2023-06-01T23:04:52;9.70;;;9.10;;
57339;SDS011;43174;50.930;18.170;2023-06-01T23:14:37;11.30;;;10.60;;
57339;SDS011;43174;50.930;18.170;2023-06-01T23:24:31;17.60;;;11.30;;
57339;SDS011;43174;50.930;18.170;2023-06-01T23:34:13;12.40;;;11.30;;
57339;SDS011;43174;50.930;18.170;2023-06-01T23:43:58;9.50;;;7.60;;
57339;SDS011;43174;50.930;18.170;2023-06-01T23:53:40;15.50;;;9.10;;
